Albertville, AL (35950)

12:02 PM CST on February 14, 2016 (GMT -0600)
Ohara Drive | | Change Station
CLOSE
Current Station
Personal Weather Station
Location: Albertville, AL
Elevation: 1020 ft
Nearby Weather Stations

Elev 1020 ft 34.24 °N, 86.23 °W | Updated 11 seconds ago

Overcast
Overcast
41.9 °F
Feels Like 36 °F
N
9.2
Wind Variable Wind from SE
Gusts 9.2 mph

Today
High -- | Low -- °F
--% Chance of Precip.
Yesterday
High -- | Low -- °F
Precip. -- in
Pressure 30.20 in
Visibility 10.0 miles
Clouds Scattered Clouds 4600 ft
Scattered Clouds 5500 ft
Overcast 7500 ft
Windchill 36 °F
Dew Point 16 °F
Humidity 35%
Rainfall 0.00 in
Snow Depth Not available.
6:31 AM 5:27 PM
Waxing Crescent, 44% visible
METAR K8A0 141755Z AUTO 15006KT 119V189 10SM SCT046 SCT055 OVC075 05/M06 A3020 RMK AO2
Pressure 30.20 in
Visibility 10.0 miles
Clouds Scattered Clouds 4600 ft
Scattered Clouds 5500 ft
Overcast 7500 ft
Windchill 36 °F
Dew Point 16 °F
Humidity 35%
Rainfall 0.00 in
Snow Depth Not available.
6:31 AM 5:27 PM
Waxing Crescent, 44% visible
METAR K8A0 141755Z AUTO 15006KT 119V189 10SM SCT046 SCT055 OVC075 05/M06 A3020 RMK AO2

10-Day Weather Forecast

Almanac

Astronomy

Feb. 14, 2016 Rise Set
Actual Time
Civil Twilight
Nautical Twilight
Astronomical Twilight
Moon
Length of Visible Light
Length of Day
Tomorrow will be .
, % of the Moon is Illuminated

Today's Extremes

State Highs State Lows

Community

WunderPhotos

Upload Photos

1,892,866 photos uploaded!

WunderBlog® & News

Nearby

Air Quality

  Air Quality AQ Index Pollutant
Not available.

Snow Depth

Station Depth Elevation

Earthquake Activity

City Distance Mag. Time & Date
Minimum magnitude displayed is 2.5.

Coastal Water Temperatures

Place Temperature

Stations

Nearby Weather Stations

Station Location Temp. Windchill Dew Point Humidity Wind Precip. Elev Updated Type
                   

Watches & Warnings

There are currently no watches in effect.